Time;durP1;ratioP1;P1;durP2;ratioP2;P2;SDS_P1;SDS_P2;PMS_P1;PMS_P2;Temp;Humidity;BMP_temperature;BMP_pressure;BME280_temperature;BME280_humidity;BME280_pressure;Samples;Min_cycle;Max_cycle;Signal;HPM_P1;HPM_P2
2023/03/20 00:01:17;;;;;;;30.83;13.20;;;;;;;5.84;78.99;95499.78;5001228;28;20252;-74
2023/03/20 00:03:43;;;;;;;33.07;13.00;;;;;;;5.76;79.77;95498.88;5022760;28;20230;-74
2023/03/20 00:06:14;;;;;;;33.57;13.13;;;;;;;5.61;80.08;95498.66;5017154;28;20794;-74
2023/03/20 00:08:40;;;;;;;30.83;13.23;;;;;;;5.68;80.45;95491.06;5016136;28;20237;-73
2023/03/20 00:11:07;;;;;;;27.63;12.50;;;;;;;5.66;79.85;95491.19;5016798;28;20685;-74
2023/03/20 00:13:33;;;;;;;36.90;13.07;;;;;;;5.72;80.07;95497.56;5012006;28;20232;-74
2023/03/20 00:15:58;;;;;;;38.00;12.77;;;;;;;5.88;78.49;95493.28;5030082;28;20883;-74
2023/03/20 00:18:25;;;;;;;33.13;13.60;;;;;;;5.82;79.37;95493.06;5002492;28;20230;-74
2023/03/20 00:20:52;;;;;;;35.83;14.43;;;;;;;5.75;80.14;95494.66;5012473;28;20224;-74
2023/03/20 00:23:17;;;;;;;34.67;14.13;;;;;;;5.75;80.21;95492.88;5017879;28;20824;-73
2023/03/20 00:25:44;;;;;;;39.33;14.33;;;;;;;5.62;79.58;95482.09;5019504;28;20230;-75
2023/03/20 00:28:28;;;;;;;34.80;15.00;;;;;;;5.62;79.56;95487.28;5015026;28;20220;-73
2023/03/20 00:30:54;;;;;;;38.47;16.27;;;;;;;5.80;79.42;95484.63;5024805;28;20238;-74
2023/03/20 00:33:19;;;;;;;42.67;15.87;;;;;;;5.70;80.26;95486.53;5015118;28;20283;-75
2023/03/20 00:35:45;;;;;;;42.50;16.90;;;;;;;5.53;80.44;95482.22;4996095;28;20234;-74
2023/03/20 00:38:10;;;;;;;46.23;17.70;;;;;;;5.67;80.14;95489.44;5036004;28;20750;-74
2023/03/20 00:40:36;;;;;;;46.90;18.13;;;;;;;5.78;79.35;95481.38;5023481;28;20603;-74
2023/03/20 00:43:02;;;;;;;50.53;17.47;;;;;;;5.82;78.87;95482.69;5031683;28;20802;-74
2023/03/20 00:45:28;;;;;;;45.57;17.67;;;;;;;5.69;79.37;95475.31;5001112;28;20371;-74
2023/03/20 00:47:53;;;;;;;39.87;17.33;;;;;;;5.72;80.19;95474.19;5014776;28;20233;-75
2023/03/20 00:50:29;;;;;;;41.87;17.50;;;;;;;5.60;80.95;95472.84;5001741;28;20264;-74
2023/03/20 00:52:54;;;;;;;46.03;17.70;;;;;;;5.50;81.30;95474.72;5012293;28;20949;-74
2023/03/20 00:55:22;;;;;;;42.17;18.07;;;;;;;5.42;81.12;95475.53;5003467;28;20241;-74
2023/03/20 00:57:49;;;;;;;45.73;18.40;;;;;;;5.42;81.38;95472.94;5017868;28;20317;-74
2023/03/20 01:00:37;;;;;;;41.43;17.07;;;;;;;5.27;82.11;95464.91;5005346;28;20230;-74
2023/03/20 01:03:10;;;;;;;39.70;17.73;;;;;;;5.30;81.55;95476.75;5044376;28;20222;-74
2023/03/20 01:05:36;;;;;;;46.37;18.33;;;;;;;5.06;82.45;95464.44;5024341;28;20220;-75
2023/03/20 01:08:01;;;;;;;46.07;18.53;;;;;;;5.10;83.17;95462.34;5013569;28;20225;-73
2023/03/20 01:10:29;;;;;;;44.90;18.63;;;;;;;5.19;82.25;95457.06;5033111;28;20887;-74
2023/03/20 01:12:55;;;;;;;42.17;17.97;;;;;;;5.20;81.74;95457.88;5016718;28;20226;-74
2023/03/20 01:15:22;;;;;;;43.13;18.60;;;;;;;5.29;82.65;95457.78;4996522;28;20253;-75
2023/03/20 01:17:48;;;;;;;43.80;18.87;;;;;;;5.22;82.76;95454.16;5012531;28;20229;-74
2023/03/20 01:20:27;;;;;;;47.63;18.80;;;;;;;5.17;82.75;95445.22;5023667;28;20222;-74
2023/03/20 01:22:53;;;;;;;42.60;18.70;;;;;;;5.16;82.57;95443.59;5018181;28;20232;-74
2023/03/20 01:25:19;;;;;;;47.90;19.50;;;;;;;5.14;82.43;95446.31;5007279;28;20241;-74
2023/03/20 01:27:48;;;;;;;49.13;19.70;;;;;;;5.21;82.78;95451.72;5003358;28;20296;-74
2023/03/20 01:30:22;;;;;;;46.23;19.47;;;;;;;5.00;82.93;95451.25;5003589;28;20707;-74
2023/03/20 01:32:47;;;;;;;46.47;19.10;;;;;;;5.13;82.88;95455.09;5007008;28;20232;-74
2023/03/20 01:35:23;;;;;;;51.60;20.53;;;;;;;5.01;83.86;95448.53;4995981;28;20241;-74
2023/03/20 01:37:48;;;;;;;50.47;20.10;;;;;;;5.06;84.06;95455.84;5025307;28;20221;-74
2023/03/20 01:40:21;;;;;;;45.37;19.53;;;;;;;5.04;82.95;95455.97;5013801;28;20229;-74
2023/03/20 01:42:47;;;;;;;47.73;19.43;;;;;;;5.05;82.83;95457.63;5013156;28;20652;-74
2023/03/20 01:45:17;;;;;;;51.17;20.37;;;;;;;4.97;82.51;95456.78;5017796;28;20233;-74
2023/03/20 01:47:42;;;;;;;53.77;19.60;;;;;;;4.87;83.50;95461.22;5003161;28;20288;-74
2023/03/20 01:50:28;;;;;;;46.87;19.67;;;;;;;4.98;82.76;95472.16;5016509;28;20234;-74
2023/03/20 01:53:06;;;;;;;48.63;20.30;;;;;;;4.89;83.50;95457.53;5025889;28;20222;-74
2023/03/20 01:55:32;;;;;;;44.40;19.20;;;;;;;4.91;82.22;95465.16;5041822;28;20649;-74
2023/03/20 01:57:59;;;;;;;49.30;18.60;;;;;;;5.03;83.26;95469.94;5035172;28;20226;-74
2023/03/20 02:00:25;;;;;;;44.43;18.63;;;;;;;5.09;83.29;95471.91;5027709;28;20229;-72
2023/03/20 02:02:50;;;;;;;47.40;19.20;;;;;;;4.94;84.00;95464.84;5021150;28;20222;-74
2023/03/20 02:05:18;;;;;;;43.53;19.03;;;;;;;4.82;84.17;95464.28;5035212;28;20243;-74
2023/03/20 02:07:46;;;;;;;46.33;19.50;;;;;;;4.58;85.66;95458.91;5006037;28;20253;-74
2023/03/20 02:10:13;;;;;;;44.77;18.73;;;;;;;4.32;86.98;95460.63;4981571;28;20227;-74
2023/03/20 02:12:39;;;;;;;43.67;18.83;;;;;;;4.54;86.29;95457.56;5017804;28;20238;-74
2023/03/20 02:15:05;;;;;;;43.47;18.37;;;;;;;4.43;86.35;95453.44;5011594;28;20242;-74
2023/03/20 02:17:31;;;;;;;44.37;18.73;;;;;;;4.50;86.03;95456.22;5018547;28;20222;-73
2023/03/20 02:20:10;;;;;;;45.53;18.00;;;;;;;4.55;85.77;95456.59;5013262;28;20271;-74
2023/03/20 02:22:42;;;;;;;42.80;18.13;;;;;;;4.60;84.79;95456.97;5038026;28;20237;-74
2023/03/20 02:25:24;;;;;;;42.07;18.40;;;;;;;4.69;85.04;95456.88;5030563;28;20316;-74
2023/03/20 02:28:18;;;;;;;41.07;17.87;;;;;;;4.78;84.36;95455.97;5033838;28;20264;-73
2023/03/20 02:31:08;;;;;;;43.90;17.27;;;;;;;4.76;84.56;95465.69;5034680;28;20362;-73
2023/03/20 02:33:52;;;;;;;41.80;17.83;;;;;;;4.65;85.05;95470.31;5030726;28;20229;-74
2023/03/20 02:36:30;;;;;;;44.77;17.60;;;;;;;4.76;84.67;95472.66;5032223;28;20233;-74
2023/03/20 02:39:20;;;;;;;42.20;18.47;;;;;;;4.66;84.92;95464.97;5035183;28;20806;-74
2023/03/20 02:42:16;;;;;;;51.67;19.93;;;;;;;4.69;84.36;95461.25;5048479;28;20226;-74
2023/03/20 02:45:09;;;;;;;49.93;20.07;;;;;;;4.73;85.02;95454.78;5033557;28;20229;-74
2023/03/20 02:47:39;;;;;;;44.63;19.50;;;;;;;4.92;84.05;95444.22;5026320;28;20712;-74
2023/03/20 02:50:41;;;;;;;50.10;19.70;;;;;;;4.98;84.42;95443.63;4981074;28;20260;-75
2023/03/20 02:53:22;;;;;;;48.53;19.20;;;;;;;5.04;83.98;95443.03;5036816;28;20237;-73
2023/03/20 02:55:58;;;;;;;50.03;19.87;;;;;;;5.01;83.51;95452.91;5033647;28;20321;-74
2023/03/20 02:58:36;;;;;;;45.43;20.00;;;;;;;4.77;84.49;95443.19;5011542;28;20855;-74
2023/03/20 03:01:16;;;;;;;55.10;19.60;;;;;;;4.73;84.38;95441.81;5011505;28;20317;-74
2023/03/20 03:03:56;;;;;;;47.93;19.13;;;;;;;4.75;85.30;95445.91;5019348;28;20225;-74
2023/03/20 03:06:29;;;;;;;47.57;19.40;;;;;;;4.61;85.45;95438.66;5039006;28;20237;-73
2023/03/20 03:09:17;;;;;;;42.27;19.13;;;;;;;4.53;85.29;95446.41;5000118;28;20739;-74
2023/03/20 03:11:47;;;;;;;42.90;19.20;;;;;;;4.57;85.86;95449.50;5031884;28;20234;-74
2023/03/20 03:14:16;;;;;;;46.50;18.87;;;;;;;4.43;85.77;95445.66;5036100;28;20225;-74
2023/03/20 03:16:41;;;;;;;46.87;19.20;;;;;;;4.39;85.86;95441.75;5013173;28;20234;-74
2023/03/20 03:19:08;;;;;;;44.07;18.30;;;;;;;4.29;86.11;95435.81;5016308;28;20259;-75
2023/03/20 03:21:38;;;;;;;42.97;18.40;;;;;;;4.23;86.32;95440.78;5004192;28;20233;-74
2023/03/20 03:24:04;;;;;;;45.17;19.27;;;;;;;4.31;85.39;95441.66;4998679;28;20213;-74
2023/03/20 03:26:37;;;;;;;44.27;18.93;;;;;;;4.21;86.64;95435.75;5007851;28;20238;-74
2023/03/20 03:29:05;;;;;;;49.20;19.53;;;;;;;4.36;86.08;95443.81;5020903;28;20233;-74
2023/03/20 03:31:31;;;;;;;43.90;18.67;;;;;;;4.39;86.17;95444.34;5016715;28;20233;-74
2023/03/20 03:33:57;;;;;;;44.93;19.30;;;;;;;4.38;85.93;95442.69;5020850;28;20252;-74
2023/03/20 03:36:35;;;;;;;45.93;19.33;;;;;;;4.37;86.45;95445.44;5013186;28;20247;-74
2023/03/20 03:39:23;;;;;;;48.60;20.03;;;;;;;4.44;85.83;95443.88;5024238;28;20275;-74
2023/03/20 03:42:11;;;;;;;47.10;19.23;;;;;;;4.20;86.97;95446.25;5046187;28;20673;-74
2023/03/20 03:44:46;;;;;;;43.77;19.80;;;;;;;4.32;86.71;95440.72;5033909;28;20707;-74
2023/03/20 03:47:15;;;;;;;47.70;19.60;;;;;;;4.19;85.75;95442.84;5009082;28;20695;-74
2023/03/20 03:49:43;;;;;;;51.50;19.83;;;;;;;4.29;85.81;95440.19;4999889;28;20300;-75
2023/03/20 03:52:15;;;;;;;49.03;20.57;;;;;;;4.16;85.94;95442.31;5033704;28;20226;-74
2023/03/20 03:54:58;;;;;;;49.90;19.43;;;;;;;4.00;86.81;95442.97;5016419;28;20241;-75
2023/03/20 03:57:44;;;;;;;44.97;19.50;;;;;;;4.07;88.01;95438.84;5031300;28;20237;-74
2023/03/20 04:00:11;;;;;;;44.60;18.90;;;;;;;4.28;86.79;95439.38;5023052;28;20256;-73
2023/03/20 04:02:36;;;;;;;47.50;19.43;;;;;;;4.22;86.51;95436.56;5017799;28;20229;-73
2023/03/20 04:05:01;;;;;;;45.23;19.60;;;;;;;4.11;87.07;95439.38;5005519;28;20256;-73
2023/03/20 04:07:27;;;;;;;48.57;19.67;;;;;;;4.21;86.98;95429.72;5006245;28;20229;-73
2023/03/20 04:09:53;;;;;;;46.30;19.63;;;;;;;4.15;87.67;95435.53;5018015;28;20238;-73
2023/03/20 04:12:39;;;;;;;50.70;18.83;;;;;;;4.14;87.58;95429.53;5028925;28;20296;-73
2023/03/20 04:15:05;;;;;;;45.53;19.70;;;;;;;4.09;87.70;95426.56;5024596;28;20240;-74
2023/03/20 04:17:30;;;;;;;50.27;20.07;;;;;;;4.07;87.77;95429.31;5017935;28;20294;-74
2023/03/20 04:19:56;;;;;;;51.43;19.87;;;;;;;3.92;88.72;95424.75;5012001;28;20226;-74
2023/03/20 04:22:21;;;;;;;54.57;19.97;;;;;;;4.13;87.68;95427.91;5030201;28;20715;-73
2023/03/20 04:24:47;;;;;;;49.17;20.00;;;;;;;4.12;87.68;95428.03;5014943;28;20288;-74
2023/03/20 04:27:12;;;;;;;50.80;20.27;;;;;;;4.03;88.46;95425.38;5014503;28;20230;-74
2023/03/20 04:29:39;;;;;;;51.73;21.47;;;;;;;3.91;89.08;95423.97;5016796;28;20230;-74
2023/03/20 04:32:05;;;;;;;47.57;19.70;;;;;;;3.97;88.58;95425.97;5007587;28;20238;-74
2023/03/20 04:34:30;;;;;;;46.97;19.57;;;;;;;3.97;88.11;95427.72;5007008;28;20808;-74
2023/03/20 04:36:56;;;;;;;47.00;19.73;;;;;;;3.97;87.99;95431.13;5000645;28;20291;-74
2023/03/20 04:39:21;;;;;;;48.80;20.43;;;;;;;3.75;89.19;95428.97;5001156;28;20275;-73
2023/03/20 04:41:47;;;;;;;60.10;22.17;;;;;;;3.82;88.53;95429.22;5017692;28;20291;-73
2023/03/20 04:44:12;;;;;;;50.83;21.80;;;;;;;3.93;89.61;95429.81;5027293;28;20230;-73
2023/03/20 04:46:38;;;;;;;57.53;21.77;;;;;;;3.92;88.98;95433.34;5007648;28;20784;-74
2023/03/20 04:49:03;;;;;;;56.57;22.33;;;;;;;4.25;87.16;95444.84;5033445;28;20614;-74
2023/03/20 04:51:29;;;;;;;57.27;22.40;;;;;;;4.41;86.47;95451.94;5000053;28;20230;-74
2023/03/20 04:53:54;;;;;;;52.03;21.83;;;;;;;4.32;86.26;95455.44;5008951;28;20248;-74
2023/03/20 04:56:20;;;;;;;57.83;21.13;;;;;;;4.41;86.58;95454.53;5039119;28;20238;-74
2023/03/20 04:58:45;;;;;;;50.10;19.77;;;;;;;4.58;84.79;95464.09;5028810;28;20229;-74
2023/03/20 05:01:11;;;;;;;45.60;19.63;;;;;;;4.56;84.89;95456.44;5007313;28;20661;-73
2023/03/20 05:03:38;;;;;;;47.60;19.90;;;;;;;4.65;86.16;95462.53;5029112;28;20260;-74
2023/03/20 05:06:03;;;;;;;57.80;23.00;;;;;;;4.69;84.25;95463.84;5017842;28;20628;-74
2023/03/20 05:08:29;;;;;;;56.57;23.70;;;;;;;4.74;83.92;95466.81;5034818;28;20245;-74
2023/03/20 05:10:54;;;;;;;58.40;24.80;;;;;;;4.75;83.83;95468.44;5030771;28;20238;-74
2023/03/20 05:13:20;;;;;;;59.30;24.40;;;;;;;4.75;83.67;95468.44;5029502;28;20238;-74
2023/03/20 05:15:45;;;;;;;64.83;25.17;;;;;;;4.62;84.53;95471.41;5023604;28;20237;-74
2023/03/20 05:18:11;;;;;;;59.57;25.00;;;;;;;4.59;84.95;95465.69;5012629;28;20233;-74
2023/03/20 05:20:36;;;;;;;68.43;26.37;;;;;;;4.42;85.79;95475.13;5014868;28;20283;-74
2023/03/20 05:23:05;;;;;;;70.83;25.90;;;;;;;4.58;85.87;95477.88;5006178;28;20230;-74
2023/03/20 05:25:30;;;;;;;60.40;25.03;;;;;;;4.68;84.76;95472.59;5003600;28;20229;-74
2023/03/20 05:27:59;;;;;;;62.50;24.57;;;;;;;4.67;84.83;95473.56;5008712;28;20229;-74
2023/03/20 05:30:24;;;;;;;61.50;25.17;;;;;;;4.83;84.08;95478.84;5036091;28;20420;-74
2023/03/20 05:32:51;;;;;;;64.27;25.47;;;;;;;4.99;83.24;95478.19;5021585;28;20229;-75
2023/03/20 05:35:17;;;;;;;64.40;24.07;;;;;;;5.33;82.25;95471.25;5020491;28;20233;-74
2023/03/20 05:37:42;;;;;;;59.10;24.80;;;;;;;5.42;81.46;95475.53;5018234;28;20721;-74
2023/03/20 05:40:10;;;;;;;59.20;23.10;;;;;;;5.53;82.06;95477.84;5014697;28;20225;-74
2023/03/20 05:42:35;;;;;;;59.33;22.40;;;;;;;5.60;81.04;95480.63;5034785;28;20298;-74
2023/03/20 05:45:01;;;;;;;63.37;24.13;;;;;;;5.69;79.91;95485.72;5031818;28;20229;-74
2023/03/20 05:47:26;;;;;;;59.23;24.27;;;;;;;5.64;81.08;95481.94;5031031;28;20234;-73
2023/03/20 05:49:52;;;;;;;58.87;24.47;;;;;;;5.70;81.54;95489.13;5033634;28;20236;-74
2023/03/20 05:52:18;;;;;;;55.20;23.93;;;;;;;5.66;82.31;95485.22;5002562;28;20221;-74
2023/03/20 05:54:43;;;;;;;50.63;20.67;;;;;;;6.02;80.97;95484.06;5004347;28;20674;-75
2023/03/20 05:57:09;;;;;;;39.00;14.87;;;;;;;5.99;77.48;95490.38;4993250;28;20226;-74
2023/03/20 05:59:35;;;;;;;37.17;14.67;;;;;;;6.09;78.04;95485.06;5016180;28;20233;-74
2023/03/20 06:02:00;;;;;;;35.43;15.13;;;;;;;6.29;78.55;95496.00;5035434;28;20332;-74
2023/03/20 06:04:25;;;;;;;47.30;16.07;;;;;;;6.09;77.47;95488.47;5033666;28;20230;-74
2023/03/20 06:06:51;;;;;;;38.60;16.27;;;;;;;6.34;76.62;95488.53;5025652;28;20226;-74
2023/03/20 06:09:16;;;;;;;46.27;18.70;;;;;;;6.27;78.20;95483.19;5032605;28;20226;-74
2023/03/20 06:11:42;;;;;;;47.13;19.70;;;;;;;6.41;77.59;95479.94;5016616;28;20265;-74
2023/03/20 06:14:07;;;;;;;53.53;21.30;;;;;;;6.10;76.77;95481.50;5019967;28;20619;-74
2023/03/20 06:16:33;;;;;;;57.67;22.20;;;;;;;6.55;76.00;95488.91;5017891;28;20225;-74
2023/03/20 06:18:59;;;;;;;66.57;24.67;;;;;;;6.54;75.94;95487.28;5017419;28;20222;-74
2023/03/20 06:21:24;;;;;;;58.57;25.10;;;;;;;6.51;76.84;95491.03;5018833;28;20238;-73
2023/03/20 06:23:50;;;;;;;68.93;26.10;;;;;;;6.24;76.42;95480.88;5018880;28;20226;-73
2023/03/20 06:26:16;;;;;;;61.70;25.73;;;;;;;6.52;75.86;95492.63;5032086;28;20322;-73
2023/03/20 06:28:41;;;;;;;71.13;25.73;;;;;;;6.62;75.88;95482.91;5016519;28;20226;-73
2023/03/20 06:31:08;;;;;;;63.43;26.00;;;;;;;6.51;75.43;95492.81;5014251;28;20276;-73
2023/03/20 06:33:34;;;;;;;67.10;27.57;;;;;;;6.67;75.07;95490.22;5031580;28;20715;-73
2023/03/20 06:35:59;;;;;;;67.20;26.77;;;;;;;6.65;74.50;95492.97;5000434;28;20237;-71
2023/03/20 06:38:25;;;;;;;70.67;27.10;;;;;;;6.61;75.15;95494.28;5002721;28;20345;-74
2023/03/20 06:40:51;;;;;;;64.00;27.03;;;;;;;6.86;74.21;95483.88;5018858;28;20276;-72
2023/03/20 06:43:17;;;;;;;68.47;27.33;;;;;;;6.87;73.86;95490.72;5005094;28;20238;-72
2023/03/20 06:45:42;;;;;;;70.00;28.10;;;;;;;7.02;73.14;95491.69;5007887;28;20229;-74
2023/03/20 06:48:08;;;;;;;73.40;29.63;;;;;;;7.13;73.23;95492.16;5016939;28;20236;-73
2023/03/20 06:50:33;;;;;;;70.37;29.90;;;;;;;7.45;71.98;95488.72;5014786;28;20356;-73
2023/03/20 06:52:59;;;;;;;72.80;30.40;;;;;;;7.62;71.71;95477.25;5030935;28;20265;-72
2023/03/20 06:55:25;;;;;;;74.17;29.20;;;;;;;7.71;70.30;95475.44;5020337;28;20271;-73
2023/03/20 06:57:50;;;;;;;75.97;28.87;;;;;;;7.94;70.13;95479.75;5019919;28;20268;-73
2023/03/20 07:00:16;;;;;;;66.03;29.13;;;;;;;8.27;69.43;95477.00;5008250;28;20316;-74
2023/03/20 07:02:42;;;;;;;66.70;29.53;;;;;;;8.55;68.21;95478.94;5035125;28;20715;-73
2023/03/20 07:05:09;;;;;;;70.07;29.87;;;;;;;8.55;67.96;95470.34;4998542;28;20234;-74
2023/03/20 07:07:35;;;;;;;72.50;29.63;;;;;;;8.60;66.68;95479.25;5042674;28;20226;-76
2023/03/20 07:10:01;;;;;;;78.17;28.87;;;;;;;8.67;67.03;95468.91;4997625;28;20306;-76
2023/03/20 07:12:27;;;;;;;68.87;28.30;;;;;;;8.87;66.67;95472.69;5011438;28;20307;-76
2023/03/20 07:14:53;;;;;;;71.77;28.20;;;;;;;8.84;66.47;95473.03;5015105;28;20663;-76
2023/03/20 07:17:18;;;;;;;66.20;28.50;;;;;;;8.82;66.08;95481.03;5015117;28;20245;-75
2023/03/20 07:19:44;;;;;;;63.13;27.73;;;;;;;8.95;65.88;95467.41;5034617;28;20828;-74
2023/03/20 07:22:17;;;;;;;66.57;27.87;;;;;;;8.96;66.27;95462.97;5015329;28;20259;-73
2023/03/20 07:24:42;;;;;;;63.50;26.27;;;;;;;9.19;65.48;95461.16;5007304;28;20233;-75
2023/03/20 07:27:08;;;;;;;68.27;27.87;;;;;;;9.32;64.47;95462.16;5031652;28;20804;-76
2023/03/20 07:29:33;;;;;;;67.90;27.27;;;;;;;9.52;64.14;95459.84;5032849;28;20225;-76
2023/03/20 07:31:59;;;;;;;60.37;26.43;;;;;;;9.66;62.94;95463.44;5034502;28;20226;-74
2023/03/20 07:34:25;;;;;;;61.10;26.63;;;;;;;9.72;62.72;95471.38;5030508;28;20250;-75
2023/03/20 07:36:51;;;;;;;61.33;24.67;;;;;;;9.91;63.16;95477.88;5026182;28;20671;-75
2023/03/20 07:39:16;;;;;;;56.13;24.53;;;;;;;9.97;61.92;95474.53;5005544;28;21041;-74
2023/03/20 07:41:42;;;;;;;62.93;24.73;;;;;;;10.19;62.02;95472.81;5035308;28;20260;-75
2023/03/20 07:44:09;;;;;;;57.30;24.40;;;;;;;10.11;61.23;95471.06;5007028;28;20237;-75
2023/03/20 07:46:34;;;;;;;59.17;25.30;;;;;;;9.97;61.82;95475.34;5000036;28;20225;-74
2023/03/20 07:49:00;;;;;;;54.03;24.00;;;;;;;10.04;61.70;95472.81;5024283;28;20338;-75
2023/03/20 07:51:25;;;;;;;53.37;24.03;;;;;;;10.32;60.99;95468.53;5008982;28;20831;-75
2023/03/20 07:53:51;;;;;;;56.77;24.00;;;;;;;10.48;60.92;95478.81;5020113;28;20269;-76
2023/03/20 07:56:16;;;;;;;49.67;22.17;;;;;;;10.54;60.24;95475.44;5007162;28;20233;-76
2023/03/20 07:58:42;;;;;;;42.17;19.23;;;;;;;10.33;60.20;95474.59;5014255;28;20225;-76
2023/03/20 08:01:07;;;;;;;43.97;19.27;;;;;;;10.42;60.68;95474.28;5006322;28;20225;-76
2023/03/20 08:03:33;;;;;;;42.80;18.60;;;;;;;10.58;60.92;95474.06;5005366;28;20229;-76
2023/03/20 08:05:58;;;;;;;40.53;17.97;;;;;;;10.46;59.61;95469.50;5016262;28;20236;-76
2023/03/20 08:08:24;;;;;;;34.10;16.00;;;;;;;10.52;60.29;95469.56;5015331;28;20719;-76
2023/03/20 08:10:50;;;;;;;35.27;15.73;;;;;;;10.71;59.75;95468.16;5002080;28;20283;-75
2023/03/20 08:13:15;;;;;;;33.03;16.17;;;;;;;10.93;60.74;95466.34;5014977;28;20738;-76
2023/03/20 08:15:41;;;;;;;35.90;16.67;;;;;;;11.01;59.05;95464.38;5033672;28;20238;-75
2023/03/20 08:18:06;;;;;;;34.90;16.67;;;;;;;11.24;58.62;95464.19;4997422;28;20230;-76
2023/03/20 08:20:32;;;;;;;32.40;15.53;;;;;;;10.93;57.51;95471.56;5017230;28;20316;-76
2023/03/20 08:22:57;;;;;;;29.83;14.60;;;;;;;10.82;58.52;95471.06;5021545;28;20704;-76
2023/03/20 08:25:22;;;;;;;30.30;15.43;;;;;;;11.01;58.15;95468.84;5021840;28;20237;-76
2023/03/20 08:27:48;;;;;;;40.20;16.87;;;;;;;11.00;57.93;95475.06;5019820;28;20248;-76
2023/03/20 08:30:14;;;;;;;36.83;16.30;;;;;;;11.19;58.23;95471.81;5030113;28;20320;-76
2023/03/20 08:32:40;;;;;;;32.77;14.97;;;;;;;11.20;58.63;95468.19;5013716;28;20775;-76
2023/03/20 08:35:07;;;;;;;36.77;17.00;;;;;;;11.37;57.59;95477.38;4995285;28;20238;-75
2023/03/20 08:37:33;;;;;;;37.67;16.73;;;;;;;11.38;57.52;95471.97;5011738;28;20733;-75
2023/03/20 08:39:59;;;;;;;37.57;17.13;;;;;;;11.55;56.92;95469.84;5017480;28;20218;-76
2023/03/20 08:42:24;;;;;;;29.37;15.00;;;;;;;11.63;56.94;95464.44;5016339;28;20306;-76
2023/03/20 08:44:50;;;;;;;34.10;14.03;;;;;;;11.75;57.34;95462.94;5016449;28;20233;-75
2023/03/20 08:47:15;;;;;;;23.47;13.17;;;;;;;11.78;57.39;95469.59;5031010;28;20291;-75
2023/03/20 08:49:42;;;;;;;21.43;10.77;;;;;;;11.88;55.90;95463.03;5028988;28;20234;-76
2023/03/20 08:52:07;;;;;;;14.67;6.77;;;;;;;11.70;56.08;95467.94;5032486;28;20249;-75
2023/03/20 08:54:33;;;;;;;18.17;8.63;;;;;;;11.89;56.09;95461.22;5012165;28;20306;-76
2023/03/20 08:56:58;;;;;;;18.80;9.53;;;;;;;12.04;55.43;95457.44;5031824;28;20233;-76
2023/03/20 08:59:24;;;;;;;18.60;9.10;;;;;;;11.97;53.94;95456.59;5003434;28;20733;-75
2023/03/20 09:01:49;;;;;;;20.13;9.67;;;;;;;12.07;54.29;95454.44;5029897;28;20225;-76
2023/03/20 09:04:15;;;;;;;24.90;10.30;;;;;;;12.13;53.24;95456.28;5003010;28;20884;-76
2023/03/20 09:06:40;;;;;;;18.00;10.13;;;;;;;12.19;52.97;95452.06;5033048;28;20252;-76
2023/03/20 09:09:06;;;;;;;21.63;10.60;;;;;;;12.26;52.69;95452.09;5007068;28;20230;-76
2023/03/20 09:11:32;;;;;;;23.10;11.30;;;;;;;12.35;53.40;95446.47;5016619;28;20729;-76
2023/03/20 09:13:58;;;;;;;25.40;11.50;;;;;;;12.48;53.12;95448.31;5023632;28;20230;-76
2023/03/20 09:16:24;;;;;;;25.40;11.87;;;;;;;12.79;52.36;95443.34;5016356;28;20726;-75
2023/03/20 09:18:49;;;;;;;26.33;12.40;;;;;;;12.78;52.33;95439.91;5029994;28;20221;-76
2023/03/20 09:21:15;;;;;;;31.10;11.97;;;;;;;12.88;51.97;95447.38;5012459;28;20230;-75
2023/03/20 09:23:40;;;;;;;26.80;12.93;;;;;;;12.89;51.93;95438.50;4994674;28;20891;-75
2023/03/20 09:26:06;;;;;;;25.97;11.90;;;;;;;13.21;52.06;95442.16;5025926;28;20221;-76
2023/03/20 09:28:31;;;;;;;21.87;11.47;;;;;;;13.26;51.64;95429.22;5017114;28;20257;-75
2023/03/20 09:30:57;;;;;;;26.73;12.17;;;;;;;13.33;50.27;95430.84;5015538;28;20234;-75
2023/03/20 09:33:22;;;;;;;26.07;12.67;;;;;;;13.24;51.11;95420.75;5001166;28;20677;-75
2023/03/20 09:35:48;;;;;;;24.27;12.20;;;;;;;13.43;50.76;95433.88;5016395;28;20253;-75
2023/03/20 09:38:14;;;;;;;25.63;11.87;;;;;;;13.45;50.30;95425.78;5014647;28;20213;-76
2023/03/20 09:40:56;;;;;;;22.97;11.37;;;;;;;13.66;49.32;95415.00;5011414;28;20226;-76
2023/03/20 09:43:43;;;;;;;28.57;12.80;;;;;;;13.83;49.74;95410.91;5029603;28;20233;-76
2023/03/20 09:46:31;;;;;;;36.47;12.90;;;;;;;13.94;49.04;95410.28;5029225;28;20675;-76
2023/03/20 09:49:24;;;;;;;30.13;12.90;;;;;;;13.88;48.53;95399.75;5022055;28;20241;-75
2023/03/20 09:52:00;;;;;;;25.73;12.87;;;;;;;14.15;48.66;95393.41;5045246;28;20317;-75
2023/03/20 09:54:35;;;;;;;25.83;12.43;;;;;;;14.16;48.42;95387.91;5018048;28;20230;-76
2023/03/20 09:57:01;;;;;;;25.93;12.60;;;;;;;14.19;48.13;95381.41;5017135;28;20229;-76
2023/03/20 09:59:27;;;;;;;28.27;12.23;;;;;;;14.26;47.39;95371.66;5016663;28;20324;-76
2023/03/20 10:01:58;;;;;;;32.17;12.90;;;;;;;14.48;47.61;95369.53;5031327;28;20233;-75
2023/03/20 10:04:25;;;;;;;24.83;12.87;;;;;;;14.50;48.58;95368.31;5015352;28;20699;-76
2023/03/20 10:06:51;;;;;;;26.33;12.77;;;;;;;14.57;48.14;95357.72;5015827;28;20229;-76
2023/03/20 10:09:17;;;;;;;27.07;12.87;;;;;;;14.41;47.81;95353.78;5025813;28;20973;-76
2023/03/20 10:12:02;;;;;;;26.40;13.00;;;;;;;14.49;47.07;95340.38;5018321;28;20307;-75
2023/03/20 10:14:56;;;;;;;31.07;12.80;;;;;;;14.78;47.25;95349.50;5032730;28;20240;-74
2023/03/20 10:17:37;;;;;;;29.67;12.73;;;;;;;15.03;45.83;95344.19;5031859;28;20245;-74
2023/03/20 10:20:25;;;;;;;27.43;12.80;;;;;;;14.98;45.71;95341.41;5025985;28;20766;-75
2023/03/20 10:23:13;;;;;;;25.83;12.63;;;;;;;15.21;46.50;95337.13;5032905;28;20257;-75
2023/03/20 10:25:45;;;;;;;24.40;12.63;;;;;;;15.31;46.00;95334.78;5011035;28;20307;-75
2023/03/20 10:28:11;;;;;;;26.03;13.00;;;;;;;15.46;45.94;95337.13;5033555;28;20222;-73
2023/03/20 10:30:59;;;;;;;26.60;13.50;;;;;;;15.48;45.30;95324.50;5025038;28;20635;-76
2023/03/20 10:33:34;;;;;;;25.87;12.47;;;;;;;15.61;45.69;95337.56;5035928;28;20233;-76
2023/03/20 10:36:18;;;;;;;27.03;12.60;;;;;;;15.60;44.93;95328.03;5034878;28;20225;-75
2023/03/20 10:38:46;;;;;;;23.80;12.23;;;;;;;15.62;44.94;95325.97;5034774;28;20226;-75
2023/03/20 10:41:17;;;;;;;25.90;12.57;;;;;;;15.65;44.48;95314.97;5034186;28;20298;-75
2023/03/20 10:43:43;;;;;;;26.93;13.30;;;;;;;16.14;44.45;95313.97;5002637;28;20218;-76
2023/03/20 10:46:36;;;;;;;24.20;12.67;;;;;;;16.18;44.51;95315.94;5035080;28;20813;-76
2023/03/20 10:49:01;;;;;;;26.30;13.23;;;;;;;16.21;42.46;95300.66;5030511;28;20228;-76
2023/03/20 10:51:42;;;;;;;28.23;12.60;;;;;;;16.52;41.99;95300.44;5034227;28;20679;-76
2023/03/20 10:54:29;;;;;;;26.87;12.77;;;;;;;16.70;42.03;95295.88;5012243;28;21014;-76
2023/03/20 10:56:56;;;;;;;21.80;12.07;;;;;;;16.79;41.09;95297.16;5037867;28;20250;-77
2023/03/20 10:59:31;;;;;;;24.20;11.70;;;;;;;16.88;40.45;95291.53;5006347;28;20221;-76
2023/03/20 11:01:57;;;;;;;23.50;12.10;;;;;;;16.99;41.25;95291.53;5031574;28;20305;-76
2023/03/20 11:04:22;;;;;;;23.47;11.77;;;;;;;17.31;41.73;95284.06;5032014;28;20241;-76
2023/03/20 11:07:00;;;;;;;26.17;12.07;;;;;;;17.36;41.20;95287.59;5021496;28;20589;-76
2023/03/20 11:09:28;;;;;;;29.37;11.77;;;;;;;17.36;39.64;95282.28;5029152;28;20241;-75
2023/03/20 11:11:56;;;;;;;23.13;11.97;;;;;;;17.59;39.65;95275.38;5006885;28;20226;-75
2023/03/20 11:14:23;;;;;;;23.40;12.07;;;;;;;17.52;39.89;95275.53;5001667;28;20253;-76
2023/03/20 11:16:53;;;;;;;24.33;12.57;;;;;;;17.84;37.75;95270.63;5021409;28;20222;-76
2023/03/20 11:19:20;;;;;;;23.47;11.07;;;;;;;17.67;38.30;95267.91;5021551;28;20229;-75
2023/03/20 11:21:50;;;;;;;21.60;10.80;;;;;;;17.92;39.09;95260.44;5013712;28;20226;-76
2023/03/20 11:24:33;;;;;;;26.93;12.23;;;;;;;17.86;38.17;95256.09;5027752;28;20274;-75
2023/03/20 11:27:12;;;;;;;22.80;11.43;;;;;;;18.09;37.59;95249.88;5000918;28;20245;-76
2023/03/20 11:29:39;;;;;;;21.70;11.47;;;;;;;18.20;38.04;95256.19;4999701;28;20359;-75
2023/03/20 11:32:15;;;;;;;25.50;11.47;;;;;;;18.28;37.26;95247.81;5032058;28;20226;-76